Time;durP1;ratioP1;P1;durP2;ratioP2;P2;SDS_P1;SDS_P2;PMS_P1;PMS_P2;Temp;Humidity;BMP_temperature;BMP_pressure;BME280_temperature;BME280_humidity;BME280_pressure;Samples;Min_cycle;Max_cycle;Signal;HPM_P1;HPM_P2
2022/12/25 00:00:05;;;;;;;;;;;18.20;59.80;;;;;;4953828;28;1275;-69
2022/12/25 00:02:31;;;;;;;;;;;18.20;59.80;;;;;;4954437;28;944;-71
2022/12/25 00:04:56;;;;;;;;;;;18.20;59.80;;;;;;4954681;28;1247;-69
2022/12/25 00:07:22;;;;;;;;;;;18.20;59.80;;;;;;4954407;28;831;-70
2022/12/25 00:09:47;;;;;;;;;;;18.20;59.90;;;;;;4958209;28;1284;-70
2022/12/25 00:12:13;;;;;;;;;;;18.20;59.90;;;;;;4956706;28;845;-69
2022/12/25 00:14:38;;;;;;;;;;;18.20;59.90;;;;;;4956976;28;1894;-70
2022/12/25 00:17:04;;;;;;;;;;;18.20;59.90;;;;;;4952488;28;1403;-70
2022/12/25 00:19:29;;;;;;;;;;;18.20;59.90;;;;;;4951084;28;1316;-70
2022/12/25 00:21:55;;;;;;;;;;;18.20;60.00;;;;;;4956749;28;939;-70
2022/12/25 00:24:20;;;;;;;;;;;18.20;60.00;;;;;;4953169;28;862;-70
2022/12/25 00:26:45;;;;;;;;;;;18.20;60.00;;;;;;4956760;28;888;-71
2022/12/25 00:29:11;;;;;;;;;;;18.20;60.10;;;;;;4954157;28;880;-70
2022/12/25 00:31:37;;;;;;;;;;;18.20;60.10;;;;;;4957688;28;1402;-69
2022/12/25 00:34:02;;;;;;;;;;;18.10;60.00;;;;;;4957261;28;820;-70
2022/12/25 00:36:28;;;;;;;;;;;18.20;60.10;;;;;;4957248;28;1907;-70
2022/12/25 00:38:53;;;;;;;;;;;18.20;60.20;;;;;;4955990;28;1355;-70
2022/12/25 00:42:17;;;;;;;;;;;18.10;60.10;;;;;;4954360;28;1716;-70
2022/12/25 00:44:05;;;;;;;;;;;18.10;60.10;;;;;;4956123;28;993;-69
2022/12/25 00:46:31;;;;;;;;;;;18.10;60.10;;;;;;4954286;28;901;-70
2022/12/25 00:48:57;;;;;;;;;;;18.10;60.10;;;;;;4953935;28;1018;-68
2022/12/25 00:51:23;;;;;;;;;;;18.10;60.20;;;;;;4955415;28;1293;-69
2022/12/25 00:53:48;;;;;;;;;;;18.10;60.20;;;;;;4956927;28;888;-68
2022/12/25 00:56:14;;;;;;;;;;;18.10;60.20;;;;;;4955308;28;1970;-69
2022/12/25 00:58:39;;;;;;;;;;;18.10;60.20;;;;;;4952091;28;926;-68
2022/12/25 01:01:05;;;;;;;;;;;18.10;60.30;;;;;;4953989;28;1288;-69
2022/12/25 01:03:30;;;;;;;;;;;18.10;60.20;;;;;;4950532;28;963;-69
2022/12/25 01:05:59;;;;;;;;;;;18.10;60.30;;;;;;4954170;28;876;-69
2022/12/25 01:08:25;;;;;;;;;;;18.10;60.30;;;;;;4956982;28;855;-68
2022/12/25 01:10:57;;;;;;;;;;;18.10;60.30;;;;;;4957816;28;1374;-69
2022/12/25 01:13:23;;;;;;;;;;;18.10;60.30;;;;;;4953948;28;885;-69
2022/12/25 01:15:48;;;;;;;;;;;18.10;60.30;;;;;;4952437;28;1993;-69
2022/12/25 01:18:14;;;;;;;;;;;18.10;60.30;;;;;;4952297;28;860;-69
2022/12/25 01:20:39;;;;;;;;;;;18.10;60.30;;;;;;4956661;28;1328;-70
2022/12/25 01:23:05;;;;;;;;;;;18.10;60.40;;;;;;4957553;28;1360;-69
2022/12/25 01:25:30;;;;;;;;;;;18.10;60.40;;;;;;4937709;28;813;-70
2022/12/25 01:27:56;;;;;;;;;;;18.10;60.40;;;;;;4951227;28;904;-69
2022/12/25 01:30:21;;;;;;;;;;;18.10;60.40;;;;;;4951840;28;1276;-69
2022/12/25 01:32:47;;;;;;;;;;;18.10;60.40;;;;;;4958322;28;954;-68
2022/12/25 01:35:12;;;;;;;;;;;18.10;60.40;;;;;;4955382;28;1903;-68
2022/12/25 01:37:38;;;;;;;;;;;18.10;60.40;;;;;;4945635;29;1451;-71
2022/12/25 01:40:03;;;;;;;;;;;18.10;60.40;;;;;;4953924;28;1375;-71
2022/12/25 01:42:29;;;;;;;;;;;18.10;60.50;;;;;;4953521;28;874;-70
2022/12/25 01:45:13;;;;;;;;;;;18.00;60.40;;;;;;4957848;28;919;-69
2022/12/25 01:47:38;;;;;;;;;;;18.00;60.40;;;;;;4953733;28;1275;-70
2022/12/25 01:50:04;;;;;;;;;;;18.00;60.50;;;;;;4954514;28;1296;-69
2022/12/25 01:52:30;;;;;;;;;;;18.00;60.50;;;;;;4953740;28;922;-69
2022/12/25 01:54:59;;;;;;;;;;;18.00;60.50;;;;;;4952544;28;1898;-67
2022/12/25 01:57:25;;;;;;;;;;;18.00;60.50;;;;;;4952741;28;908;-68
2022/12/25 01:59:51;;;;;;;;;;;18.00;60.50;;;;;;4954545;28;1190;-71
2022/12/25 02:02:16;;;;;;;;;;;18.00;60.50;;;;;;4953609;28;860;-72
2022/12/25 02:04:53;;;;;;;;;;;18.00;60.50;;;;;;4957192;28;1038;-68
2022/12/25 02:07:19;;;;;;;;;;;18.00;60.50;;;;;;4953216;28;849;-69
2022/12/25 02:09:44;;;;;;;;;;;18.00;60.60;;;;;;4952371;28;1351;-69
2022/12/25 02:12:12;;;;;;;;;;;18.00;60.60;;;;;;4958711;28;903;-69
2022/12/25 02:14:37;;;;;;;;;;;18.00;60.50;;;;;;4952917;28;1872;-68
2022/12/25 02:17:05;;;;;;;;;;;18.00;60.50;;;;;;4953660;28;860;-69
2022/12/25 02:19:46;;;;;;;;;;;18.00;60.60;;;;;;4951105;28;1232;-69
2022/12/25 02:22:17;;;;;;;;;;;18.00;60.60;;;;;;4955141;28;925;-71
2022/12/25 02:25:01;;;;;;;;;;;18.00;60.60;;;;;;4957699;28;775;-68
2022/12/25 02:27:26;;;;;;;;;;;18.00;60.60;;;;;;4957950;28;876;-69
2022/12/25 02:29:54;;;;;;;;;;;18.00;60.60;;;;;;4953110;28;1343;-68
2022/12/25 02:32:46;;;;;;;;;;;18.00;60.60;;;;;;4950216;28;840;-67
2022/12/25 02:35:14;;;;;;;;;;;18.00;60.60;;;;;;4949298;28;1906;-70
2022/12/25 02:37:43;;;;;;;;;;;18.00;60.60;;;;;;4929941;28;1165;-67
2022/12/25 02:40:15;;;;;;;;;;;18.00;60.60;;;;;;4952403;28;1288;-67
2022/12/25 03:07:20;;;;;;;;;;;18.00;60.70;;;;;;4949372;28;759;-68
2022/12/25 03:12:34;;;;;;;;;;;18.00;60.70;;;;;;4950586;28;792;-69
2022/12/25 03:17:44;;;;;;;;;;;18.00;60.70;;;;;;4952543;28;791;-69
2022/12/25 03:28:22;;;;;;;;;;;17.90;60.70;;;;;;4951594;28;762;-68
2022/12/25 03:33:35;;;;;;;;;;;17.90;60.70;;;;;;4947316;29;828;-68
2022/12/25 03:36:04;;;;;;;;;;;18.00;60.80;;;;;;4948783;28;1907;-68
2022/12/25 04:36:38;;;;;;;;;;;17.90;60.80;;;;;;4957273;28;1902;-68
2022/12/25 04:39:03;;;;;;;;;;;17.90;60.90;;;;;;4953177;28;1397;-69
2022/12/25 04:41:29;;;;;;;;;;;17.90;60.90;;;;;;4954894;28;1264;-69
2022/12/25 04:43:54;;;;;;;;;;;17.90;60.90;;;;;;4953937;28;784;-69
2022/12/25 04:46:20;;;;;;;;;;;17.90;60.90;;;;;;4954594;28;861;-68
2022/12/25 04:48:45;;;;;;;;;;;17.90;60.90;;;;;;4957554;28;888;-69
2022/12/25 04:51:11;;;;;;;;;;;17.90;60.90;;;;;;4955462;28;1367;-68
2022/12/25 04:53:36;;;;;;;;;;;17.90;60.90;;;;;;4951207;28;824;-69
2022/12/25 04:56:02;;;;;;;;;;;17.90;60.90;;;;;;4954795;28;1898;-69
2022/12/25 04:58:27;;;;;;;;;;;17.90;60.90;;;;;;4956039;28;837;-68
2022/12/25 05:00:53;;;;;;;;;;;17.90;60.90;;;;;;4954700;28;1269;-68
2022/12/25 05:03:18;;;;;;;;;;;17.90;60.90;;;;;;4933215;28;1331;-68
2022/12/25 05:05:43;;;;;;;;;;;17.90;60.90;;;;;;4950921;28;783;-69
2022/12/25 05:08:10;;;;;;;;;;;17.90;60.90;;;;;;4954287;28;864;-68
2022/12/25 05:10:38;;;;;;;;;;;17.90;60.90;;;;;;4954356;28;1337;-68
2022/12/25 05:13:03;;;;;;;;;;;17.90;60.90;;;;;;4953676;28;838;-68
2022/12/25 05:15:29;;;;;;;;;;;17.90;60.80;;;;;;4955878;28;1903;-68
2022/12/25 05:17:54;;;;;;;;;;;17.90;60.80;;;;;;4953917;28;924;-67
2022/12/25 05:20:20;;;;;;;;;;;17.90;60.70;;;;;;4956201;28;1747;-67
2022/12/25 05:22:45;;;;;;;;;;;18.00;60.70;;;;;;4955240;28;897;-68
2022/12/25 05:25:10;;;;;;;;;;;18.00;60.60;;;;;;4955790;28;1598;-68
2022/12/25 05:27:36;;;;;;;;;;;18.00;60.60;;;;;;4955644;28;907;-67
2022/12/25 05:30:02;;;;;;;;;;;18.00;60.50;;;;;;4954309;28;1370;-68
2022/12/25 05:32:27;;;;;;;;;;;18.10;60.50;;;;;;4954280;28;850;-69
2022/12/25 05:34:53;;;;;;;;;;;18.10;60.30;;;;;;4956325;28;1918;-67
2022/12/25 05:37:19;;;;;;;;;;;18.10;60.30;;;;;;4958292;28;815;-67
2022/12/25 05:39:44;;;;;;;;;;;18.10;60.20;;;;;;4955109;28;1311;-67
2022/12/25 05:42:09;;;;;;;;;;;18.10;60.10;;;;;;4952393;28;1018;-68
2022/12/25 05:44:35;;;;;;;;;;;18.20;60.10;;;;;;4953234;28;819;-68
2022/12/25 05:47:00;;;;;;;;;;;18.20;60.10;;;;;;4954512;28;875;-68
2022/12/25 05:49:26;;;;;;;;;;;18.20;60.00;;;;;;4951696;28;1261;-68
2022/12/25 05:51:51;;;;;;;;;;;18.20;59.90;;;;;;4954136;28;796;-68
2022/12/25 05:54:17;;;;;;;;;;;18.20;59.90;;;;;;4962139;28;1038;-68
2022/12/25 05:56:42;;;;;;;;;;;18.20;59.80;;;;;;4952040;28;1923;-66
2022/12/25 05:59:08;;;;;;;;;;;18.20;59.80;;;;;;4955418;28;860;-70
2022/12/25 06:01:33;;;;;;;;;;;18.20;59.80;;;;;;4954011;28;1352;-70
2022/12/25 06:03:59;;;;;;;;;;;18.30;59.80;;;;;;4954530;28;1242;-71
2022/12/25 06:06:24;;;;;;;;;;;18.20;59.70;;;;;;4954080;28;959;-70
2022/12/25 06:09:02;;;;;;;;;;;18.30;59.80;;;;;;4960505;28;1673;-67
2022/12/25 06:11:27;;;;;;;;;;;18.30;59.70;;;;;;4952134;28;1293;-71
2022/12/25 06:13:53;;;;;;;;;;;18.30;59.70;;;;;;4952994;28;929;-70
2022/12/25 06:16:18;;;;;;;;;;;18.30;59.70;;;;;;4954885;28;1903;-68
2022/12/25 06:18:45;;;;;;;;;;;18.30;59.60;;;;;;4956134;28;807;-69
2022/12/25 06:21:11;;;;;;;;;;;18.30;59.60;;;;;;4950968;28;1366;-69
2022/12/25 06:23:36;;;;;;;;;;;18.30;59.60;;;;;;4951248;28;870;-69
2022/12/25 06:26:03;;;;;;;;;;;18.30;59.60;;;;;;4951555;28;955;-69
2022/12/25 06:28:29;;;;;;;;;;;18.30;59.60;;;;;;4950364;28;903;-69
2022/12/25 06:30:55;;;;;;;;;;;18.30;59.60;;;;;;4952833;28;1264;-67
2022/12/25 06:33:20;;;;;;;;;;;18.30;59.60;;;;;;4951611;28;1137;-67
2022/12/25 06:35:45;;;;;;;;;;;18.30;59.60;;;;;;4951427;28;1911;-67
2022/12/25 06:38:11;;;;;;;;;;;18.30;59.60;;;;;;4954345;28;1420;-67
2022/12/25 06:40:36;;;;;;;;;;;18.30;59.60;;;;;;4955502;28;1367;-70
2022/12/25 06:43:02;;;;;;;;;;;18.30;59.50;;;;;;4952042;28;800;-69
2022/12/25 06:45:27;;;;;;;;;;;18.30;59.60;;;;;;4951107;28;928;-68
2022/12/25 06:47:53;;;;;;;;;;;18.30;59.50;;;;;;4953438;28;832;-68
2022/12/25 06:50:18;;;;;;;;;;;18.30;60.10;;;;;;4951469;28;1264;-69
2022/12/25 06:52:44;;;;;;;;;;;18.30;59.50;;;;;;4955815;28;752;-68
2022/12/25 06:55:10;;;;;;;;;;;18.30;59.50;;;;;;4952205;29;1994;-68
2022/12/25 06:57:35;;;;;;;;;;;18.30;59.60;;;;;;4952011;28;1026;-69
2022/12/25 07:00:01;;;;;;;;;;;18.30;59.60;;;;;;4953052;28;1284;-69
2022/12/25 07:02:26;;;;;;;;;;;18.30;59.60;;;;;;4953091;28;865;-68
2022/12/25 07:04:52;;;;;;;;;;;18.30;59.60;;;;;;4949838;28;950;-70
2022/12/25 07:07:17;;;;;;;;;;;18.30;59.60;;;;;;4942407;28;1169;-69
2022/12/25 07:09:43;;;;;;;;;;;18.30;59.60;;;;;;4951214;28;1287;-69
2022/12/25 07:12:18;;;;;;;;;;;18.30;59.60;;;;;;4950693;28;856;-70
2022/12/25 07:14:46;;;;;;;;;;;18.30;59.60;;;;;;4950381;28;1962;-70
2022/12/25 07:17:12;;;;;;;;;;;18.30;59.60;;;;;;4951353;28;868;-70
2022/12/25 07:19:37;;;;;;;;;;;18.30;59.70;;;;;;4949471;28;1315;-69
2022/12/25 07:22:03;;;;;;;;;;;18.30;59.60;;;;;;4953911;28;1073;-69
2022/12/25 07:24:28;;;;;;;;;;;18.30;60.30;;;;;;4952439;28;779;-69
2022/12/25 07:26:53;;;;;;;;;;;18.30;59.70;;;;;;4952502;28;888;-70
2022/12/25 07:29:19;;;;;;;;;;;18.30;59.70;;;;;;4951239;28;1221;-70
2022/12/25 07:31:45;;;;;;;;;;;18.30;59.70;;;;;;4955260;28;927;-69
2022/12/25 07:34:10;;;;;;;;;;;18.30;59.80;;;;;;4955157;28;1279;-69
2022/12/25 07:36:35;;;;;;;;;;;18.30;59.70;;;;;;4954342;28;1911;-69
2022/12/25 07:39:01;;;;;;;;;;;18.30;59.80;;;;;;4951986;28;1395;-69
2022/12/25 07:41:26;;;;;;;;;;;18.30;59.80;;;;;;4948453;28;1304;-69
2022/12/25 07:43:52;;;;;;;;;;;18.20;59.80;;;;;;4952083;28;1920;-68
2022/12/25 07:46:18;;;;;;;;;;;18.20;59.80;;;;;;4948050;28;2236;-69
2022/12/25 07:48:43;;;;;;;;;;;18.20;59.80;;;;;;4930730;28;2175;-69
2022/12/25 07:51:10;;;;;;;;;;;18.20;59.80;;;;;;4954652;28;1399;-69
2022/12/25 07:53:35;;;;;;;;;;;18.20;59.90;;;;;;4953289;28;1508;-69
2022/12/25 07:56:02;;;;;;;;;;;18.20;59.80;;;;;;4957539;28;2067;-69
2022/12/25 07:58:27;;;;;;;;;;;18.20;59.90;;;;;;4958707;28;1091;-69
2022/12/25 08:00:53;;;;;;;;;;;18.20;59.90;;;;;;4953911;28;1918;-68
2022/12/25 08:03:18;;;;;;;;;;;18.20;59.80;;;;;;4951861;28;2168;-68
2022/12/25 08:05:44;;;;;;;;;;;18.20;59.80;;;;;;4952383;28;1268;-68
2022/12/25 08:08:09;;;;;;;;;;;18.20;59.80;;;;;;4953715;28;1413;-68
2022/12/25 08:10:35;;;;;;;;;;;18.30;59.80;;;;;;4952564;28;2013;-67
2022/12/25 08:13:00;;;;;;;;;;;18.30;59.80;;;;;;4955035;28;1641;-69
2022/12/25 08:15:26;;;;;;;;;;;18.30;59.80;;;;;;4952570;28;1954;-69
2022/12/25 08:17:51;;;;;;;;;;;18.30;59.70;;;;;;4953838;28;2122;-69
2022/12/25 08:20:17;;;;;;;;;;;18.30;59.70;;;;;;4957073;28;1487;-69
2022/12/25 08:22:42;;;;;;;;;;;18.30;59.70;;;;;;4954466;28;1284;-69
2022/12/25 08:25:08;;;;;;;;;;;18.30;59.60;;;;;;4955129;28;2028;-69
2022/12/25 08:27:33;;;;;;;;;;;18.30;59.60;;;;;;4952444;28;1374;-68
2022/12/25 08:29:59;;;;;;;;;;;18.30;59.60;;;;;;4956192;28;1441;-68
2022/12/25 08:32:24;;;;;;;;;;;18.30;59.60;;;;;;4960601;28;888;-68
2022/12/25 08:34:50;;;;;;;;;;;18.30;59.70;;;;;;4955716;28;1907;-69
2022/12/25 08:37:15;;;;;;;;;;;18.30;59.60;;;;;;4955917;28;872;-69
2022/12/25 08:39:40;;;;;;;;;;;18.30;59.60;;;;;;4956686;28;1379;-69
2022/12/25 08:42:06;;;;;;;;;;;18.30;59.60;;;;;;4952964;28;2104;-67
2022/12/25 08:44:31;;;;;;;;;;;18.30;59.60;;;;;;4954609;28;1387;-67
2022/12/25 08:46:57;;;;;;;;;;;18.30;59.50;;;;;;4955745;28;1647;-70
2022/12/25 08:49:26;;;;;;;;;;;18.30;59.50;;;;;;4954760;28;1370;-68
2022/12/25 08:51:51;;;;;;;;;;;18.40;59.50;;;;;;4952603;28;1110;-68
2022/12/25 08:54:17;;;;;;;;;;;18.30;59.50;;;;;;4957190;28;1950;-67
2022/12/25 08:56:42;;;;;;;;;;;18.40;59.50;;;;;;4953938;28;1907;-68
2022/12/25 08:59:08;;;;;;;;;;;18.40;59.50;;;;;;4953722;28;1292;-68
2022/12/25 09:01:33;;;;;;;;;;;18.40;59.40;;;;;;4955815;28;1257;-68
2022/12/25 09:03:59;;;;;;;;;;;18.40;59.50;;;;;;4956115;28;1239;-69
2022/12/25 09:06:24;;;;;;;;;;;18.40;59.40;;;;;;4953291;28;852;-69
2022/12/25 09:08:49;;;;;;;;;;;18.40;59.40;;;;;;4951349;28;823;-70
2022/12/25 09:11:15;;;;;;;;;;;18.40;59.40;;;;;;4956176;28;1367;-67
2022/12/25 09:13:40;;;;;;;;;;;18.40;59.40;;;;;;4959526;28;812;-66
2022/12/25 09:16:06;;;;;;;;;;;18.40;59.40;;;;;;4955067;28;1966;-69
2022/12/25 09:18:32;;;;;;;;;;;18.40;59.30;;;;;;4958587;28;982;-71
2022/12/25 09:20:58;;;;;;;;;;;18.40;59.30;;;;;;4954688;28;1329;-67
2022/12/25 09:23:24;;;;;;;;;;;18.50;59.40;;;;;;4950816;28;879;-67
2022/12/25 09:25:49;;;;;;;;;;;18.50;59.30;;;;;;4959712;28;864;-67
2022/12/25 09:28:14;;;;;;;;;;;18.50;59.30;;;;;;4958930;28;927;-71
2022/12/25 09:30:40;;;;;;;;;;;18.50;59.30;;;;;;4956083;28;1258;-70
2022/12/25 09:33:05;;;;;;;;;;;18.50;59.30;;;;;;4951557;28;1018;-71
2022/12/25 09:35:31;;;;;;;;;;;18.50;59.30;;;;;;4957821;28;1950;-67
2022/12/25 09:37:56;;;;;;;;;;;18.50;59.20;;;;;;4957318;28;884;-67
2022/12/25 09:40:22;;;;;;;;;;;18.50;59.20;;;;;;4956950;28;1604;-67
2022/12/25 09:42:47;;;;;;;;;;;18.50;59.20;;;;;;4956234;28;855;-67
2022/12/25 09:45:14;;;;;;;;;;;18.50;59.20;;;;;;4956261;28;816;-68
2022/12/25 09:47:40;;;;;;;;;;;18.50;59.20;;;;;;4958056;28;892;-70
2022/12/25 09:50:10;;;;;;;;;;;18.50;59.20;;;;;;4958151;28;1289;-69
2022/12/25 09:52:48;;;;;;;;;;;18.50;59.20;;;;;;4953465;29;916;-70
2022/12/25 09:55:17;;;;;;;;;;;18.50;59.20;;;;;;4955459;28;1907;-68
2022/12/25 09:57:43;;;;;;;;;;;18.50;59.30;;;;;;4951163;28;975;-67
2022/12/25 10:00:19;;;;;;;;;;;18.50;59.30;;;;;;4959369;28;1323;-67
2022/12/25 10:02:54;;;;;;;;;;;18.50;59.30;;;;;;4950803;28;1114;-68
2022/12/25 10:05:34;;;;;;;;;;;18.50;59.30;;;;;;4951231;28;809;-67
2022/12/25 10:08:02;;;;;;;;;;;18.50;59.30;;;;;;4947467;28;840;-68
2022/12/25 10:10:38;;;;;;;;;;;18.50;59.30;;;;;;4956440;28;1357;-70
2022/12/25 10:13:33;;;;;;;;;;;18.50;59.30;;;;;;4952689;28;888;-67
2022/12/25 10:16:01;;;;;;;;;;;18.50;59.30;;;;;;4951211;28;1963;-71
2022/12/25 10:18:37;;;;;;;;;;;18.50;59.30;;;;;;4953302;29;742;-69
2022/12/25 10:21:03;;;;;;;;;;;18.50;59.40;;;;;;4954943;28;1278;-68
2022/12/25 10:23:28;;;;;;;;;;;18.50;59.40;;;;;;4955259;28;1023;-67
2022/12/25 10:25:54;;;;;;;;;;;18.40;59.30;;;;;;4953638;28;884;-68
2022/12/25 10:28:32;;;;;;;;;;;18.50;59.40;;;;;;4955424;28;853;-68
2022/12/25 10:30:58;;;;;;;;;;;18.40;59.30;;;;;;4955640;28;1373;-68
2022/12/25 10:33:24;;;;;;;;;;;18.50;59.40;;;;;;4951450;28;936;-69
2022/12/25 10:35:49;;;;;;;;;;;18.50;59.30;;;;;;4949054;28;1981;-69
2022/12/25 10:38:15;;;;;;;;;;;18.50;59.40;;;;;;4951506;28;1364;-69
2022/12/25 10:41:04;;;;;;;;;;;18.50;59.40;;;;;;4951066;28;1246;-69
2022/12/25 10:43:35;;;;;;;;;;;18.50;59.40;;;;;;4950788;28;1343;-69
2022/12/25 10:46:06;;;;;;;;;;;18.50;59.40;;;;;;4953279;28;1008;-69
2022/12/25 10:48:32;;;;;;;;;;;18.50;59.40;;;;;;4951309;28;784;-69
2022/12/25 10:50:57;;;;;;;;;;;18.40;59.30;;;;;;4950958;28;1266;-69
2022/12/25 10:53:26;;;;;;;;;;;18.50;59.40;;;;;;4951552;28;883;-69
2022/12/25 10:55:55;;;;;;;;;;;18.50;59.40;;;;;;4950445;28;1914;-69
2022/12/25 10:58:21;;;;;;;;;;;18.50;59.30;;;;;;4947430;28;833;-69
2022/12/25 11:00:53;;;;;;;;;;;18.50;59.40;;;;;;4949100;28;1321;-69
2022/12/25 11:03:20;;;;;;;;;;;18.50;59.40;;;;;;4948509;28;1342;-69
2022/12/25 11:05:47;;;;;;;;;;;18.50;59.30;;;;;;4948828;28;1012;-70
2022/12/25 11:08:15;;;;;;;;;;;18.50;59.90;;;;;;4949884;28;832;-69
2022/12/25 11:10:42;;;;;;;;;;;18.40;59.30;;;;;;4951922;28;1394;-69
2022/12/25 11:13:17;;;;;;;;;;;18.40;59.30;;;;;;4944962;28;876;-69
2022/12/25 11:15:43;;;;;;;;;;;18.50;59.40;;;;;;4947087;28;1894;-68
2022/12/25 11:18:25;;;;;;;;;;;18.50;59.40;;;;;;4954795;28;1470;-68
2022/12/25 11:20:52;;;;;;;;;;;18.50;59.40;;;;;;4950875;28;1463;-68
2022/12/25 11:23:19;;;;;;;;;;;18.40;59.30;;;;;;4950937;28;871;-68
2022/12/25 11:25:53;;;;;;;;;;;18.50;59.40;;;;;;4954996;28;871;-68
2022/12/25 11:28:18;;;;;;;;;;;18.50;59.40;;;;;;4953922;28;881;-69
2022/12/25 11:30:44;;;;;;;;;;;18.40;59.30;;;;;;4956862;28;1299;-68
2022/12/25 11:33:10;;;;;;;;;;;18.40;59.40;;;;;;4957065;28;899;-68
2022/12/25 11:35:46;;;;;;;;;;;18.40;59.40;;;;;;4953835;28;1910;-69
2022/12/25 11:38:11;;;;;;;;;;;18.40;59.40;;;;;;4958675;28;1305;-69
2022/12/25 11:40:41;;;;;;;;;;;18.40;59.40;;;;;;4954648;28;1261;-68
2022/12/25 11:43:13;;;;;;;;;;;18.40;59.40;;;;;;4956507;28;1087;-68
2022/12/25 11:45:40;;;;;;;;;;;18.40;59.40;;;;;;4954362;28;904;-68
2022/12/25 11:48:13;;;;;;;;;;;18.50;59.40;;;;;;4956156;28;1568;-68
2022/12/25 11:50:52;;;;;;;;;;;18.40;59.30;;;;;;4954805;28;1533;-68
2022/12/25 11:53:24;;;;;;;;;;;18.50;59.40;;;;;;4954350;28;1489;-70
2022/12/25 11:55:53;;;;;;;;;;;18.50;59.40;;;;;;4952453;28;1994;-69
2022/12/25 11:58:22;;;;;;;;;;;18.50;59.40;;;;;;4951001;28;2218;-69
2022/12/25 12:00:47;;;;;;;;;;;18.50;59.40;;;;;;4954866;28;1433;-69
2022/12/25 12:03:20;;;;;;;;;;;18.40;59.30;;;;;;4954423;28;1329;-69
2022/12/25 12:05:46;;;;;;;;;;;18.50;59.40;;;;;;4936927;28;1346;-69
2022/12/25 12:08:12;;;;;;;;;;;18.50;59.40;;;;;;4953682;28;1327;-70
2022/12/25 12:10:41;;;;;;;;;;;18.40;59.30;;;;;;4949361;28;1302;-69
2022/12/25 12:13:19;;;;;;;;;;;18.50;59.40;;;;;;4957211;28;1117;-69
2022/12/25 12:15:45;;;;;;;;;;;18.50;59.40;;;;;;4965508;28;1962;-69
2022/12/25 12:18:26;;;;;;;;;;;18.50;59.40;;;;;;4951407;28;1011;-69
2022/12/25 12:21:10;;;;;;;;;;;18.50;59.40;;;;;;4957051;28;1333;-69
2022/12/25 12:23:47;;;;;;;;;;;18.50;59.40;;;;;;4956192;28;1166;-69
2022/12/25 12:26:19;;;;;;;;;;;18.50;59.30;;;;;;4955339;28;833;-69
2022/12/25 12:28:45;;;;;;;;;;;18.50;59.30;;;;;;4954605;28;1492;-71
2022/12/25 12:31:10;;;;;;;;;;;18.50;59.30;;;;;;4954397;28;1443;-69
2022/12/25 12:33:56;;;;;;;;;;;18.50;59.30;;;;;;4953798;28;1320;-68
2022/12/25 12:36:25;;;;;;;;;;;18.50;59.30;;;;;;4952331;28;1972;-69
2022/12/25 12:38:51;;;;;;;;;;;18.50;59.30;;;;;;4953726;28;1106;-69
2022/12/25 12:41:17;;;;;;;;;;;18.50;59.30;;;;;;4954218;28;1706;-70
2022/12/25 12:43:45;;;;;;;;;;;18.50;59.30;;;;;;4951793;28;1861;-69
2022/12/25 12:46:16;;;;;;;;;;;18.50;59.30;;;;;;4954566;28;1266;-70
2022/12/25 12:48:43;;;;;;;;;;;18.50;59.20;;;;;;4953730;28;1929;-67
2022/12/25 12:51:29;;;;;;;;;;;18.50;59.20;;;;;;4950091;28;1751;-69
2022/12/25 12:54:17;;;;;;;;;;;18.50;59.20;;;;;;4956525;28;1567;-70
2022/12/25 12:56:53;;;;;;;;;;;18.50;59.20;;;;;;4950693;28;1907;-71
2022/12/25 12:59:18;;;;;;;;;;;18.50;59.20;;;;;;4952686;28;1275;-69
2022/12/25 13:01:47;;;;;;;;;;;18.50;59.30;;;;;;4951972;28;1296;-71
2022/12/25 13:04:28;;;;;;;;;;;18.50;59.30;;;;;;4953030;28;1281;-71
2022/12/25 13:06:55;;;;;;;;;;;18.50;59.80;;;;;;4952294;28;833;-71
2022/12/25 13:09:24;;;;;;;;;;;18.50;59.30;;;;;;4952866;28;1298;-70
2022/12/25 13:11:49;;;;;;;;;;;18.50;59.30;;;;;;4954803;28;1363;-71
2022/12/25 13:14:16;;;;;;;;;;;18.50;59.30;;;;;;4952770;28;892;-70
2022/12/25 13:16:42;;;;;;;;;;;18.50;59.30;;;;;;4954718;28;1964;-72
2022/12/25 13:19:17;;;;;;;;;;;18.50;59.30;;;;;;4952520;28;890;-71
2022/12/25 13:21:59;;;;;;;;;;;18.50;59.30;;;;;;4951805;28;1212;-69
2022/12/25 13:24:28;;;;;;;;;;;18.50;59.30;;;;;;4940747;23;2125;-71
2022/12/25 13:26:54;;;;;;;;;;;18.50;59.30;;;;;;4954200;28;2419;-71
2022/12/25 13:29:22;;;;;;;;;;;18.50;59.30;;;;;;4955085;28;2166;-70
2022/12/25 13:31:48;;;;;;;;;;;18.50;59.30;;;;;;4934543;29;2101;-71
2022/12/25 13:34:27;;;;;;;;;;;18.50;59.30;;;;;;4934823;29;2115;-69
2022/12/25 13:36:52;;;;;;;;;;;18.50;59.30;;;;;;4934019;29;2588;-70
2022/12/25 13:39:18;;;;;;;;;;;18.50;59.30;;;;;;4934010;29;2584;-70
2022/12/25 13:42:08;;;;;;;;;;;18.50;59.20;;;;;;4932939;29;2328;-70
2022/12/25 13:44:53;;;;;;;;;;;18.50;59.30;;;;;;4932878;29;2464;-69
2022/12/25 13:47:19;;;;;;;;;;;18.50;59.20;;;;;;4932466;29;2950;-71
2022/12/25 13:49:45;;;;;;;;;;;18.50;59.30;;;;;;4932499;29;2107;-70
2022/12/25 13:52:14;;;;;;;;;;;18.50;59.30;;;;;;4933805;29;1344;-70
2022/12/25 13:54:59;;;;;;;;;;;18.50;59.30;;;;;;4916149;29;1252;-68
2022/12/25 13:57:29;;;;;;;;;;;18.50;59.30;;;;;;4933026;29;908;-72
2022/12/25 13:59:54;;;;;;;;;;;18.50;59.30;;;;;;4931521;29;1280;-72
2022/12/25 14:02:21;;;;;;;;;;;18.50;59.30;;;;;;4931349;29;903;-72
2022/12/25 14:04:46;;;;;;;;;;;18.50;59.30;;;;;;4934019;29;1393;-72
2022/12/25 14:07:14;;;;;;;;;;;18.50;59.30;;;;;;4933583;29;846;-73
2022/12/25 14:09:40;;;;;;;;;;;18.50;59.40;;;;;;4932511;29;1629;-72
2022/12/25 14:12:05;;;;;;;;;;;18.50;59.40;;;;;;4918706;29;1410;-73
2022/12/25 14:14:31;;;;;;;;;;;18.50;59.40;;;;;;4932698;29;1236;-73
2022/12/25 14:16:56;;;;;;;;;;;18.50;59.40;;;;;;4929683;29;1895;-69
2022/12/25 14:19:22;;;;;;;;;;;18.50;59.40;;;;;;4933819;29;1202;-72
2022/12/25 14:21:50;;;;;;;;;;;18.40;59.40;;;;;;4935195;29;822;-70
2022/12/25 14:24:15;;;;;;;;;;;18.40;59.40;;;;;;4932791;29;841;-70
2022/12/25 14:26:41;;;;;;;;;;;18.40;59.40;;;;;;4917627;29;1353;-70
2022/12/25 14:29:07;;;;;;;;;;;18.40;59.50;;;;;;4933475;29;1047;-71
2022/12/25 14:31:33;;;;;;;;;;;18.40;59.40;;;;;;4917901;29;1313;-69
2022/12/25 14:34:02;;;;;;;;;;;18.40;59.50;;;;;;4932954;29;857;-70
2022/12/25 14:36:27;;;;;;;;;;;18.40;59.50;;;;;;4933311;29;1903;-70
2022/12/25 14:38:59;;;;;;;;;;;18.40;59.50;;;;;;4932943;29;975;-70
2022/12/25 14:41:38;;;;;;;;;;;18.40;59.50;;;;;;4932108;29;1389;-68
2022/12/25 14:44:24;;;;;;;;;;;18.40;59.50;;;;;;4932433;29;757;-70
2022/12/25 14:46:49;;;;;;;;;;;18.40;59.50;;;;;;4933065;29;982;-70
2022/12/25 14:49:20;;;;;;;;;;;18.40;59.50;;;;;;4932962;29;797;-70
2022/12/25 14:51:46;;;;;;;;;;;18.40;59.50;;;;;;4931064;29;881;-69
2022/12/25 14:54:16;;;;;;;;;;;18.40;59.50;;;;;;4931795;29;1019;-69
2022/12/25 14:56:45;;;;;;;;;;;18.40;59.50;;;;;;4933084;29;1919;-69
2022/12/25 14:59:20;;;;;;;;;;;18.40;59.50;;;;;;4931039;29;1341;-70
2022/12/25 15:01:54;;;;;;;;;;;18.40;59.50;;;;;;4930931;29;913;-71
2022/12/25 15:04:21;;;;;;;;;;;18.40;59.50;;;;;;4931804;29;1360;-70
2022/12/25 15:06:53;;;;;;;;;;;18.40;59.40;;;;;;4931847;29;853;-70
2022/12/25 15:09:19;;;;;;;;;;;18.40;59.50;;;;;;4931552;29;1247;-71
2022/12/25 15:11:48;;;;;;;;;;;18.40;59.40;;;;;;4931020;29;1859;-70
2022/12/25 15:14:14;;;;;;;;;;;18.40;59.40;;;;;;4931634;29;1414;-71
2022/12/25 15:16:40;;;;;;;;;;;18.40;59.40;;;;;;4932046;29;1895;-72
2022/12/25 15:19:06;;;;;;;;;;;18.40;59.40;;;;;;4930985;29;948;-71
2022/12/25 15:21:32;;;;;;;;;;;18.50;59.40;;;;;;4930270;29;1226;-71
2022/12/25 15:23:57;;;;;;;;;;;18.40;59.30;;;;;;4929940;29;972;-71
2022/12/25 15:26:23;;;;;;;;;;;18.50;59.40;;;;;;4931793;29;873;-73
2022/12/25 15:28:49;;;;;;;;;;;18.50;59.40;;;;;;4931600;29;1019;-71
2022/12/25 15:31:14;;;;;;;;;;;18.50;59.40;;;;;;4930848;29;1269;-71
2022/12/25 15:33:39;;;;;;;;;;;18.50;59.40;;;;;;4933157;29;809;-72
2022/12/25 15:36:05;;;;;;;;;;;18.50;60.00;;;;;;4931489;29;1997;-73
2022/12/25 15:38:35;;;;;;;;;;;18.50;59.40;;;;;;4932960;29;1097;-73
2022/12/25 15:41:01;;;;;;;;;;;18.50;59.40;;;;;;4931926;29;1303;-73
2022/12/25 15:43:26;;;;;;;;;;;18.50;59.40;;;;;;4931539;29;1200;-72
2022/12/25 15:45:52;;;;;;;;;;;18.50;59.40;;;;;;4946232;29;1194;-71
2022/12/25 15:48:17;;;;;;;;;;;18.50;59.40;;;;;;4931999;29;959;-76
2022/12/25 15:50:43;;;;;;;;;;;18.50;59.30;;;;;;4911054;29;1670;-75
2022/12/25 15:53:09;;;;;;;;;;;18.50;59.40;;;;;;4932116;29;1563;-75
2022/12/25 15:55:35;;;;;;;;;;;18.50;59.40;;;;;;4946776;29;1895;-75
2022/12/25 15:58:01;;;;;;;;;;;18.50;59.40;;;;;;4930165;29;1374;-72
2022/12/25 16:00:26;;;;;;;;;;;18.50;59.40;;;;;;4930641;29;1590;-72
2022/12/25 16:02:52;;;;;;;;;;;18.50;59.40;;;;;;4930414;29;1304;-70
2022/12/25 16:05:17;;;;;;;;;;;18.40;59.30;;;;;;4931108;29;1288;-72
2022/12/25 16:07:43;;;;;;;;;;;18.50;59.40;;;;;;4930552;29;1283;-72
2022/12/25 16:10:16;;;;;;;;;;;18.40;59.30;;;;;;4930361;29;1370;-70
2022/12/25 16:12:41;;;;;;;;;;;18.40;59.40;;;;;;4935018;29;1407;-71
2022/12/25 16:15:08;;;;;;;;;;;18.50;59.40;;;;;;4933286;29;1902;-71